sensor_id;sensor_type;location;lat;lon;timestamp;P1;durP1;ratioP1;P2;durP2;ratioP2
67548;SDS011;54382;53.524;49.326;2022-09-02T00:01:20;29.23;;;19.10;;
67548;SDS011;54382;53.524;49.326;2022-09-02T00:03:48;34.65;;;20.58;;
67548;SDS011;54382;53.524;49.326;2022-09-02T00:06:17;30.55;;;20.90;;
67548;SDS011;54382;53.524;49.326;2022-09-02T00:08:44;28.65;;;20.27;;
67548;SDS011;54382;53.524;49.326;2022-09-02T00:11:15;32.80;;;20.60;;
67548;SDS011;54382;53.524;49.326;2022-09-02T00:13:45;32.88;;;20.58;;
67548;SDS011;54382;53.524;49.326;2022-09-02T00:16:12;34.80;;;23.38;;
67548;SDS011;54382;53.524;49.326;2022-09-02T00:18:39;34.58;;;23.42;;
67548;SDS011;54382;53.524;49.326;2022-09-02T00:21:06;34.78;;;23.17;;
67548;SDS011;54382;53.524;49.326;2022-09-02T00:23:36;36.95;;;25.37;;
67548;SDS011;54382;53.524;49.326;2022-09-02T00:26:03;40.00;;;25.20;;
67548;SDS011;54382;53.524;49.326;2022-09-02T00:28:30;36.33;;;23.58;;
67548;SDS011;54382;53.524;49.326;2022-09-02T00:30:56;43.17;;;27.05;;
67548;SDS011;54382;53.524;49.326;2022-09-02T00:33:23;39.08;;;25.95;;
67548;SDS011;54382;53.524;49.326;2022-09-02T00:35:49;36.25;;;26.33;;
67548;SDS011;54382;53.524;49.326;2022-09-02T00:38:16;36.90;;;26.23;;
67548;SDS011;54382;53.524;49.326;2022-09-02T00:40:44;40.33;;;26.02;;
67548;SDS011;54382;53.524;49.326;2022-09-02T00:43:24;38.67;;;26.23;;
67548;SDS011;54382;53.524;49.326;2022-09-02T00:46:07;41.70;;;26.77;;
67548;SDS011;54382;53.524;49.326;2022-09-02T00:48:35;41.78;;;26.98;;
67548;SDS011;54382;53.524;49.326;2022-09-02T00:51:09;35.78;;;25.42;;
67548;SDS011;54382;53.524;49.326;2022-09-02T00:53:37;36.90;;;26.17;;
67548;SDS011;54382;53.524;49.326;2022-09-02T00:56:06;39.30;;;26.92;;
67548;SDS011;54382;53.524;49.326;2022-09-02T00:58:41;40.72;;;25.37;;
67548;SDS011;54382;53.524;49.326;2022-09-02T01:01:08;41.28;;;27.80;;
67548;SDS011;54382;53.524;49.326;2022-09-02T01:03:36;45.28;;;26.50;;
67548;SDS011;54382;53.524;49.326;2022-09-02T01:06:06;37.15;;;24.02;;
67548;SDS011;54382;53.524;49.326;2022-09-02T01:08:36;40.22;;;27.35;;
67548;SDS011;54382;53.524;49.326;2022-09-02T01:11:03;44.88;;;27.45;;
67548;SDS011;54382;53.524;49.326;2022-09-02T01:13:40;41.05;;;28.33;;
67548;SDS011;54382;53.524;49.326;2022-09-02T01:16:24;42.95;;;27.85;;
67548;SDS011;54382;53.524;49.326;2022-09-02T01:18:57;43.13;;;29.55;;
67548;SDS011;54382;53.524;49.326;2022-09-02T01:21:26;44.22;;;30.23;;
67548;SDS011;54382;53.524;49.326;2022-09-02T01:23:53;42.50;;;27.45;;
67548;SDS011;54382;53.524;49.326;2022-09-02T01:26:20;41.28;;;27.73;;
67548;SDS011;54382;53.524;49.326;2022-09-02T01:28:52;41.47;;;27.90;;
67548;SDS011;54382;53.524;49.326;2022-09-02T01:31:19;44.70;;;28.30;;
67548;SDS011;54382;53.524;49.326;2022-09-02T01:33:45;39.33;;;28.62;;
67548;SDS011;54382;53.524;49.326;2022-09-02T01:36:12;43.72;;;28.85;;
67548;SDS011;54382;53.524;49.326;2022-09-02T01:38:38;42.92;;;28.20;;
67548;SDS011;54382;53.524;49.326;2022-09-02T01:41:06;43.40;;;28.52;;
67548;SDS011;54382;53.524;49.326;2022-09-02T01:43:32;38.28;;;28.17;;
67548;SDS011;54382;53.524;49.326;2022-09-02T01:45:59;46.90;;;29.65;;
67548;SDS011;54382;53.524;49.326;2022-09-02T01:48:27;44.28;;;27.58;;
67548;SDS011;54382;53.524;49.326;2022-09-02T01:50:58;44.72;;;29.60;;
67548;SDS011;54382;53.524;49.326;2022-09-02T01:53:27;47.33;;;29.08;;
67548;SDS011;54382;53.524;49.326;2022-09-02T01:55:54;41.80;;;28.42;;
67548;SDS011;54382;53.524;49.326;2022-09-02T01:58:21;43.92;;;27.98;;
67548;SDS011;54382;53.524;49.326;2022-09-02T02:00:49;44.03;;;27.37;;
67548;SDS011;54382;53.524;49.326;2022-09-02T02:03:16;37.08;;;27.08;;
67548;SDS011;54382;53.524;49.326;2022-09-02T02:05:42;42.58;;;27.42;;
67548;SDS011;54382;53.524;49.326;2022-09-02T02:08:09;44.38;;;28.73;;
67548;SDS011;54382;53.524;49.326;2022-09-02T02:10:36;41.83;;;27.98;;
67548;SDS011;54382;53.524;49.326;2022-09-02T02:13:05;43.78;;;27.65;;
67548;SDS011;54382;53.524;49.326;2022-09-02T02:15:35;44.88;;;28.00;;
67548;SDS011;54382;53.524;49.326;2022-09-02T02:18:06;40.72;;;26.45;;
67548;SDS011;54382;53.524;49.326;2022-09-02T02:20:34;39.70;;;26.65;;
67548;SDS011;54382;53.524;49.326;2022-09-02T02:23:02;47.15;;;27.13;;
67548;SDS011;54382;53.524;49.326;2022-09-02T02:25:30;43.22;;;28.00;;
67548;SDS011;54382;53.524;49.326;2022-09-02T02:27:57;40.17;;;26.30;;
67548;SDS011;54382;53.524;49.326;2022-09-02T02:30:24;41.05;;;26.60;;
67548;SDS011;54382;53.524;49.326;2022-09-02T02:32:50;40.47;;;26.90;;
67548;SDS011;54382;53.524;49.326;2022-09-02T02:35:17;44.10;;;27.02;;
67548;SDS011;54382;53.524;49.326;2022-09-02T02:37:45;39.85;;;25.77;;
67548;SDS011;54382;53.524;49.326;2022-09-02T02:40:16;43.25;;;26.10;;
67548;SDS011;54382;53.524;49.326;2022-09-02T02:42:46;36.83;;;25.60;;
67548;SDS011;54382;53.524;49.326;2022-09-02T02:45:13;36.08;;;24.77;;
67548;SDS011;54382;53.524;49.326;2022-09-02T02:47:40;42.97;;;24.40;;
67548;SDS011;54382;53.524;49.326;2022-09-02T02:50:11;34.35;;;23.05;;
67548;SDS011;54382;53.524;49.326;2022-09-02T02:52:41;40.90;;;24.00;;
67548;SDS011;54382;53.524;49.326;2022-09-02T02:55:09;34.05;;;22.58;;
67548;SDS011;54382;53.524;49.326;2022-09-02T02:57:39;38.72;;;24.63;;
67548;SDS011;54382;53.524;49.326;2022-09-02T03:02:35;40.10;;;23.00;;
67548;SDS011;54382;53.524;49.326;2022-09-02T03:05:03;30.45;;;21.35;;
67548;SDS011;54382;53.524;49.326;2022-09-02T03:07:31;32.35;;;20.75;;
67548;SDS011;54382;53.524;49.326;2022-09-02T03:09:58;34.90;;;21.30;;
67548;SDS011;54382;53.524;49.326;2022-09-02T03:12:25;30.27;;;20.00;;
67548;SDS011;54382;53.524;49.326;2022-09-02T03:14:52;34.47;;;19.85;;
67548;SDS011;54382;53.524;49.326;2022-09-02T03:17:19;30.75;;;20.05;;
67548;SDS011;54382;53.524;49.326;2022-09-02T03:19:46;30.40;;;20.35;;
67548;SDS011;54382;53.524;49.326;2022-09-02T03:22:12;35.08;;;20.25;;
67548;SDS011;54382;53.524;49.326;2022-09-02T03:24:39;31.50;;;19.58;;
67548;SDS011;54382;53.524;49.326;2022-09-02T03:27:06;32.30;;;19.35;;
67548;SDS011;54382;53.524;49.326;2022-09-02T03:29:33;33.75;;;20.62;;
67548;SDS011;54382;53.524;49.326;2022-09-02T03:31:59;33.65;;;20.60;;
67548;SDS011;54382;53.524;49.326;2022-09-02T03:34:26;43.40;;;22.42;;
67548;SDS011;54382;53.524;49.326;2022-09-02T03:36:52;41.40;;;22.80;;
67548;SDS011;54382;53.524;49.326;2022-09-02T03:39:19;35.70;;;23.67;;
67548;SDS011;54382;53.524;49.326;2022-09-02T03:41:45;37.92;;;23.05;;
67548;SDS011;54382;53.524;49.326;2022-09-02T03:44:14;38.60;;;25.42;;
67548;SDS011;54382;53.524;49.326;2022-09-02T03:46:41;46.55;;;25.80;;
67548;SDS011;54382;53.524;49.326;2022-09-02T03:49:08;45.40;;;26.02;;
67548;SDS011;54382;53.524;49.326;2022-09-02T03:51:34;43.95;;;26.48;;
67548;SDS011;54382;53.524;49.326;2022-09-02T03:54:05;50.93;;;28.10;;
67548;SDS011;54382;53.524;49.326;2022-09-02T03:56:33;49.63;;;29.27;;
67548;SDS011;54382;53.524;49.326;2022-09-02T03:59:00;50.75;;;27.45;;
67548;SDS011;54382;53.524;49.326;2022-09-02T04:01:27;57.22;;;28.58;;
67548;SDS011;54382;53.524;49.326;2022-09-02T04:03:54;50.47;;;27.75;;
67548;SDS011;54382;53.524;49.326;2022-09-02T04:06:21;53.25;;;28.27;;
67548;SDS011;54382;53.524;49.326;2022-09-02T04:08:49;57.42;;;28.75;;
67548;SDS011;54382;53.524;49.326;2022-09-02T04:11:17;52.92;;;25.52;;
67548;SDS011;54382;53.524;49.326;2022-09-02T04:13:46;56.50;;;25.83;;
67548;SDS011;54382;53.524;49.326;2022-09-02T04:16:16;54.78;;;25.52;;
67548;SDS011;54382;53.524;49.326;2022-09-02T04:18:46;35.47;;;23.13;;
67548;SDS011;54382;53.524;49.326;2022-09-02T04:21:13;40.60;;;22.30;;
67548;SDS011;54382;53.524;49.326;2022-09-02T04:23:40;47.70;;;24.20;;
67548;SDS011;54382;53.524;49.326;2022-09-02T04:26:08;45.78;;;24.92;;
67548;SDS011;54382;53.524;49.326;2022-09-02T04:28:38;44.65;;;24.83;;
67548;SDS011;54382;53.524;49.326;2022-09-02T04:31:09;51.42;;;26.00;;
67548;SDS011;54382;53.524;49.326;2022-09-02T04:33:38;59.03;;;28.48;;
67548;SDS011;54382;53.524;49.326;2022-09-02T04:36:06;59.88;;;27.13;;
67548;SDS011;54382;53.524;49.326;2022-09-02T04:38:35;51.50;;;29.48;;
67548;SDS011;54382;53.524;49.326;2022-09-02T04:41:06;66.03;;;32.22;;
67548;SDS011;54382;53.524;49.326;2022-09-02T04:43:45;65.87;;;32.97;;
67548;SDS011;54382;53.524;49.326;2022-09-02T04:46:12;67.75;;;33.92;;
67548;SDS011;54382;53.524;49.326;2022-09-02T04:48:40;64.75;;;33.95;;
67548;SDS011;54382;53.524;49.326;2022-09-02T04:51:13;68.20;;;34.30;;
67548;SDS011;54382;53.524;49.326;2022-09-02T04:53:42;67.87;;;34.55;;
67548;SDS011;54382;53.524;49.326;2022-09-02T04:56:11;77.95;;;35.85;;
67548;SDS011;54382;53.524;49.326;2022-09-02T04:58:41;68.35;;;35.80;;
67548;SDS011;54382;53.524;49.326;2022-09-02T05:01:12;84.87;;;36.55;;
67548;SDS011;54382;53.524;49.326;2022-09-02T05:03:42;70.30;;;37.03;;
67548;SDS011;54382;53.524;49.326;2022-09-02T05:06:11;61.03;;;36.55;;
67548;SDS011;54382;53.524;49.326;2022-09-02T05:08:43;70.75;;;37.28;;
67548;SDS011;54382;53.524;49.326;2022-09-02T05:11:14;67.37;;;36.53;;
67548;SDS011;54382;53.524;49.326;2022-09-02T05:13:48;66.57;;;35.97;;
67548;SDS011;54382;53.524;49.326;2022-09-02T05:16:16;60.20;;;33.97;;
67548;SDS011;54382;53.524;49.326;2022-09-02T05:18:45;66.25;;;33.65;;
67548;SDS011;54382;53.524;49.326;2022-09-02T05:21:12;70.28;;;33.72;;
67548;SDS011;54382;53.524;49.326;2022-09-02T05:23:39;60.42;;;33.65;;
67548;SDS011;54382;53.524;49.326;2022-09-02T05:26:06;62.30;;;31.85;;
67548;SDS011;54382;53.524;49.326;2022-09-02T05:28:35;64.93;;;30.37;;
67548;SDS011;54382;53.524;49.326;2022-09-02T05:31:05;51.17;;;28.30;;
67548;SDS011;54382;53.524;49.326;2022-09-02T05:33:35;63.63;;;30.75;;
67548;SDS011;54382;53.524;49.326;2022-09-02T05:36:09;55.33;;;30.75;;
67548;SDS011;54382;53.524;49.326;2022-09-02T05:38:47;55.15;;;29.33;;
67548;SDS011;54382;53.524;49.326;2022-09-02T05:41:17;45.75;;;26.90;;
67548;SDS011;54382;53.524;49.326;2022-09-02T05:43:50;53.72;;;26.85;;
67548;SDS011;54382;53.524;49.326;2022-09-02T05:46:20;49.45;;;25.77;;
67548;SDS011;54382;53.524;49.326;2022-09-02T05:48:50;55.22;;;22.80;;
67548;SDS011;54382;53.524;49.326;2022-09-02T05:51:49;45.63;;;24.48;;
67548;SDS011;54382;53.524;49.326;2022-09-02T05:54:22;45.45;;;22.10;;
67548;SDS011;54382;53.524;49.326;2022-09-02T05:56:55;41.28;;;22.40;;
67548;SDS011;54382;53.524;49.326;2022-09-02T05:59:33;47.10;;;24.75;;
67548;SDS011;54382;53.524;49.326;2022-09-02T06:02:04;44.88;;;21.77;;
67548;SDS011;54382;53.524;49.326;2022-09-02T06:04:31;36.60;;;18.17;;
67548;SDS011;54382;53.524;49.326;2022-09-02T06:07:14;43.22;;;20.48;;
67548;SDS011;54382;53.524;49.326;2022-09-02T06:09:41;35.80;;;18.98;;
67548;SDS011;54382;53.524;49.326;2022-09-02T06:12:09;35.90;;;18.58;;
67548;SDS011;54382;53.524;49.326;2022-09-02T06:14:38;40.30;;;20.85;;
67548;SDS011;54382;53.524;49.326;2022-09-02T06:17:05;39.38;;;21.27;;
67548;SDS011;54382;53.524;49.326;2022-09-02T06:19:32;45.63;;;22.25;;
67548;SDS011;54382;53.524;49.326;2022-09-02T06:22:00;47.35;;;23.12;;
67548;SDS011;54382;53.524;49.326;2022-09-02T06:24:28;45.63;;;25.05;;
67548;SDS011;54382;53.524;49.326;2022-09-02T06:26:56;56.20;;;31.62;;
67548;SDS011;54382;53.524;49.326;2022-09-02T06:29:24;51.85;;;31.27;;
67548;SDS011;54382;53.524;49.326;2022-09-02T06:31:51;68.70;;;34.50;;
67548;SDS011;54382;53.524;49.326;2022-09-02T06:34:19;69.78;;;34.20;;
67548;SDS011;54382;53.524;49.326;2022-09-02T06:36:49;67.12;;;36.92;;
67548;SDS011;54382;53.524;49.326;2022-09-02T06:39:17;74.15;;;37.22;;
67548;SDS011;54382;53.524;49.326;2022-09-02T06:41:46;64.47;;;33.78;;
67548;SDS011;54382;53.524;49.326;2022-09-02T06:44:13;75.90;;;34.13;;
67548;SDS011;54382;53.524;49.326;2022-09-02T06:46:44;63.15;;;33.60;;
67548;SDS011;54382;53.524;49.326;2022-09-02T06:49:13;62.83;;;33.85;;
67548;SDS011;54382;53.524;49.326;2022-09-02T06:51:42;65.00;;;34.25;;
67548;SDS011;54382;53.524;49.326;2022-09-02T06:54:13;57.25;;;31.83;;
67548;SDS011;54382;53.524;49.326;2022-09-02T06:56:42;55.75;;;30.92;;
67548;SDS011;54382;53.524;49.326;2022-09-02T06:59:09;52.70;;;29.73;;
67548;SDS011;54382;53.524;49.326;2022-09-02T07:01:36;57.88;;;29.98;;
67548;SDS011;54382;53.524;49.326;2022-09-02T07:04:03;49.88;;;28.80;;
67548;SDS011;54382;53.524;49.326;2022-09-02T07:07:02;50.17;;;27.83;;
67548;SDS011;54382;53.524;49.326;2022-09-02T07:09:31;50.15;;;27.45;;
67548;SDS011;54382;53.524;49.326;2022-09-02T07:11:58;48.85;;;27.70;;
67548;SDS011;54382;53.524;49.326;2022-09-02T07:14:26;54.80;;;28.58;;
67548;SDS011;54382;53.524;49.326;2022-09-02T07:16:53;53.80;;;26.30;;
67548;SDS011;54382;53.524;49.326;2022-09-02T07:19:24;46.10;;;28.35;;
67548;SDS011;54382;53.524;49.326;2022-09-02T07:21:51;51.30;;;29.90;;
67548;SDS011;54382;53.524;49.326;2022-09-02T07:24:18;47.15;;;25.60;;
67548;SDS011;54382;53.524;49.326;2022-09-02T07:26:45;39.92;;;24.42;;
67548;SDS011;54382;53.524;49.326;2022-09-02T07:29:12;61.22;;;29.20;;
67548;SDS011;54382;53.524;49.326;2022-09-02T07:31:41;44.42;;;26.87;;
67548;SDS011;54382;53.524;49.326;2022-09-02T07:34:10;65.10;;;27.60;;
67548;SDS011;54382;53.524;49.326;2022-09-02T07:36:39;47.58;;;27.37;;
67548;SDS011;54382;53.524;49.326;2022-09-02T07:39:07;55.65;;;30.80;;
67548;SDS011;54382;53.524;49.326;2022-09-02T07:41:36;51.58;;;31.12;;
67548;SDS011;54382;53.524;49.326;2022-09-02T07:44:04;58.25;;;32.97;;
67548;SDS011;54382;53.524;49.326;2022-09-02T07:46:32;43.55;;;23.83;;
67548;SDS011;54382;53.524;49.326;2022-09-02T07:49:00;42.33;;;24.80;;
67548;SDS011;54382;53.524;49.326;2022-09-02T07:51:31;45.23;;;27.57;;
67548;SDS011;54382;53.524;49.326;2022-09-02T07:53:59;54.45;;;28.85;;
67548;SDS011;54382;53.524;49.326;2022-09-02T07:56:27;51.92;;;28.33;;
67548;SDS011;54382;53.524;49.326;2022-09-02T07:58:54;37.72;;;21.87;;
67548;SDS011;54382;53.524;49.326;2022-09-02T08:01:21;36.67;;;18.65;;
67548;SDS011;54382;53.524;49.326;2022-09-02T08:03:48;35.60;;;18.20;;
67548;SDS011;54382;53.524;49.326;2022-09-02T08:06:15;37.75;;;23.98;;
67548;SDS011;54382;53.524;49.326;2022-09-02T08:08:42;48.42;;;27.73;;
67548;SDS011;54382;53.524;49.326;2022-09-02T08:11:08;44.47;;;25.62;;
67548;SDS011;54382;53.524;49.326;2022-09-02T08:13:36;45.22;;;25.65;;
67548;SDS011;54382;53.524;49.326;2022-09-02T08:16:05;43.92;;;24.15;;
67548;SDS011;54382;53.524;49.326;2022-09-02T08:18:32;40.72;;;21.65;;
67548;SDS011;54382;53.524;49.326;2022-09-02T08:20:59;30.92;;;17.83;;
67548;SDS011;54382;53.524;49.326;2022-09-02T08:23:26;27.23;;;14.27;;
67548;SDS011;54382;53.524;49.326;2022-09-02T08:25:53;23.00;;;12.65;;
67548;SDS011;54382;53.524;49.326;2022-09-02T08:28:19;29.83;;;15.23;;
67548;SDS011;54382;53.524;49.326;2022-09-02T08:30:46;27.90;;;13.27;;
67548;SDS011;54382;53.524;49.326;2022-09-02T08:33:13;30.65;;;13.82;;
67548;SDS011;54382;53.524;49.326;2022-09-02T08:35:39;35.55;;;17.02;;
67548;SDS011;54382;53.524;49.326;2022-09-02T08:38:06;29.27;;;18.35;;
67548;SDS011;54382;53.524;49.326;2022-09-02T08:40:36;32.70;;;19.20;;
67548;SDS011;54382;53.524;49.326;2022-09-02T08:43:13;37.40;;;19.17;;
67548;SDS011;54382;53.524;49.326;2022-09-02T08:46:04;36.15;;;19.33;;
67548;SDS011;54382;53.524;49.326;2022-09-02T08:48:37;35.00;;;17.83;;
67548;SDS011;54382;53.524;49.326;2022-09-02T08:51:57;31.58;;;16.60;;
67548;SDS011;54382;53.524;49.326;2022-09-02T08:56:58;25.70;;;16.35;;
67548;SDS011;54382;53.524;49.326;2022-09-02T08:59:26;31.02;;;17.65;;
67548;SDS011;54382;53.524;49.326;2022-09-02T09:10:10;42.38;;;24.63;;
67548;SDS011;54382;53.524;49.326;2022-09-02T09:18:23;41.33;;;23.00;;
67548;SDS011;54382;53.524;49.326;2022-09-02T09:21:41;35.05;;;19.48;;
67548;SDS011;54382;53.524;49.326;2022-09-02T09:24:16;40.65;;;21.62;;
67548;SDS011;54382;53.524;49.326;2022-09-02T09:26:59;45.75;;;25.45;;
67548;SDS011;54382;53.524;49.326;2022-09-02T09:29:32;43.55;;;25.50;;
67548;SDS011;54382;53.524;49.326;2022-09-02T09:32:00;40.60;;;24.33;;
67548;SDS011;54382;53.524;49.326;2022-09-02T09:37:29;35.90;;;19.85;;
67548;SDS011;54382;53.524;49.326;2022-09-02T09:39:58;34.03;;;19.15;;
67548;SDS011;54382;53.524;49.326;2022-09-02T09:42:35;38.13;;;19.85;;
67548;SDS011;54382;53.524;49.326;2022-09-02T09:45:36;34.20;;;19.25;;
67548;SDS011;54382;53.524;49.326;2022-09-02T09:48:07;31.37;;;19.10;;
67548;SDS011;54382;53.524;49.326;2022-09-02T09:50:43;29.87;;;17.55;;
67548;SDS011;54382;53.524;49.326;2022-09-02T09:53:36;31.37;;;18.48;;
67548;SDS011;54382;53.524;49.326;2022-09-02T09:56:06;28.77;;;17.92;;
67548;SDS011;54382;53.524;49.326;2022-09-02T09:58:54;33.90;;;17.95;;
67548;SDS011;54382;53.524;49.326;2022-09-02T10:01:21;30.37;;;17.85;;
67548;SDS011;54382;53.524;49.326;2022-09-02T10:08:59;44.63;;;21.20;;
67548;SDS011;54382;53.524;49.326;2022-09-02T10:11:31;42.67;;;21.50;;
67548;SDS011;54382;53.524;49.326;2022-09-02T10:14:05;38.95;;;20.37;;
67548;SDS011;54382;53.524;49.326;2022-09-02T10:16:51;42.53;;;22.75;;
67548;SDS011;54382;53.524;49.326;2022-09-02T10:25:33;42.28;;;23.38;;
67548;SDS011;54382;53.524;49.326;2022-09-02T10:28:35;40.88;;;23.35;;
67548;SDS011;54382;53.524;49.326;2022-09-02T10:43:53;42.65;;;25.95;;
67548;SDS011;54382;53.524;49.326;2022-09-02T10:58:38;41.92;;;23.90;;
67548;SDS011;54382;53.524;49.326;2022-09-02T11:01:45;40.42;;;23.80;;
67548;SDS011;54382;53.524;49.326;2022-09-02T11:07:43;45.17;;;22.42;;
67548;SDS011;54382;53.524;49.326;2022-09-02T11:10:30;31.95;;;22.20;;
67548;SDS011;54382;53.524;49.326;2022-09-02T11:13:16;34.85;;;21.50;;
67548;SDS011;54382;53.524;49.326;2022-09-02T11:18:34;40.10;;;21.52;;
67548;SDS011;54382;53.524;49.326;2022-09-02T11:23:45;32.85;;;19.95;;
67548;SDS011;54382;53.524;49.326;2022-09-02T11:32:16;31.17;;;19.08;;
67548;SDS011;54382;53.524;49.326;2022-09-02T11:34:52;31.95;;;18.87;;
67548;SDS011;54382;53.524;49.326;2022-09-02T11:37:29;33.63;;;19.97;;
67548;SDS011;54382;53.524;49.326;2022-09-02T11:40:31;32.03;;;18.90;;
67548;SDS011;54382;53.524;49.326;2022-09-02T11:46:34;26.95;;;16.98;;
67548;SDS011;54382;53.524;49.326;2022-09-02T11:49:31;28.38;;;17.05;;
67548;SDS011;54382;53.524;49.326;2022-09-02T11:56:29;36.60;;;18.75;;
67548;SDS011;54382;53.524;49.326;2022-09-02T11:58:55;29.75;;;16.77;;
67548;SDS011;54382;53.524;49.326;2022-09-02T12:09:44;22.20;;;16.17;;
67548;SDS011;54382;53.524;49.326;2022-09-02T12:17:41;33.97;;;16.70;;
67548;SDS011;54382;53.524;49.326;2022-09-02T12:23:06;23.15;;;15.52;;
67548;SDS011;54382;53.524;49.326;2022-09-02T12:25:36;24.67;;;15.82;;
67548;SDS011;54382;53.524;49.326;2022-09-02T12:33:32;24.87;;;15.45;;
67548;SDS011;54382;53.524;49.326;2022-09-02T12:58:49;21.48;;;14.25;;
67548;SDS011;54382;53.524;49.326;2022-09-02T13:01:27;29.98;;;15.55;;
67548;SDS011;54382;53.524;49.326;2022-09-02T13:07:01;28.55;;;13.88;;
67548;SDS011;54382;53.524;49.326;2022-09-02T13:13:08;28.55;;;13.68;;
67548;SDS011;54382;53.524;49.326;2022-09-02T13:24:55;21.02;;;11.70;;
67548;SDS011;54382;53.524;49.326;2022-09-02T13:33:34;20.92;;;12.68;;
67548;SDS011;54382;53.524;49.326;2022-09-02T13:36:01;22.60;;;12.80;;
67548;SDS011;54382;53.524;49.326;2022-09-02T13:38:30;19.48;;;12.40;;
67548;SDS011;54382;53.524;49.326;2022-09-02T13:40:57;21.27;;;12.18;;
67548;SDS011;54382;53.524;49.326;2022-09-02T13:43:24;25.27;;;12.95;;
67548;SDS011;54382;53.524;49.326;2022-09-02T13:45:52;22.42;;;12.80;;
67548;SDS011;54382;53.524;49.326;2022-09-02T13:48:25;24.33;;;12.88;;
67548;SDS011;54382;53.524;49.326;2022-09-02T13:50:56;22.00;;;12.73;;
67548;SDS011;54382;53.524;49.326;2022-09-02T13:53:37;22.40;;;12.85;;
67548;SDS011;54382;53.524;49.326;2022-09-02T13:56:13;30.45;;;13.80;;
67548;SDS011;54382;53.524;49.326;2022-09-02T13:58:45;22.40;;;13.23;;
67548;SDS011;54382;53.524;49.326;2022-09-02T14:01:19;22.80;;;13.38;;
67548;SDS011;54382;53.524;49.326;2022-09-02T14:03:50;19.87;;;11.88;;
67548;SDS011;54382;53.524;49.326;2022-09-02T14:06:24;25.35;;;16.12;;
67548;SDS011;54382;53.524;49.326;2022-09-02T14:08:58;24.30;;;12.15;;
67548;SDS011;54382;53.524;49.326;2022-09-02T14:11:37;30.98;;;11.82;;
67548;SDS011;54382;53.524;49.326;2022-09-02T14:14:14;25.27;;;11.25;;
67548;SDS011;54382;53.524;49.326;2022-09-02T14:16:44;22.52;;;10.95;;
67548;SDS011;54382;53.524;49.326;2022-09-02T14:21:46;18.55;;;9.73;;
67548;SDS011;54382;53.524;49.326;2022-09-02T14:24:22;19.62;;;9.95;;
67548;SDS011;54382;53.524;49.326;2022-09-02T14:27:02;18.80;;;8.90;;
67548;SDS011;54382;53.524;49.326;2022-09-02T14:29:44;17.07;;;9.77;;
67548;SDS011;54382;53.524;49.326;2022-09-02T14:32:19;17.35;;;9.10;;
67548;SDS011;54382;53.524;49.326;2022-09-02T14:34:48;22.60;;;9.38;;
67548;SDS011;54382;53.524;49.326;2022-09-02T14:37:56;18.75;;;9.43;;
67548;SDS011;54382;53.524;49.326;2022-09-02T14:40:34;20.73;;;9.43;;
67548;SDS011;54382;53.524;49.326;2022-09-02T14:43:08;20.95;;;9.68;;
67548;SDS011;54382;53.524;49.326;2022-09-02T14:45:39;19.67;;;9.30;;
67548;SDS011;54382;53.524;49.326;2022-09-02T14:48:15;21.50;;;9.57;;
67548;SDS011;54382;53.524;49.326;2022-09-02T14:50:47;23.10;;;9.00;;
67548;SDS011;54382;53.524;49.326;2022-09-02T14:53:23;15.93;;;8.10;;
67548;SDS011;54382;53.524;49.326;2022-09-02T14:55:51;22.20;;;8.93;;
67548;SDS011;54382;53.524;49.326;2022-09-02T14:58:20;17.60;;;8.27;;
67548;SDS011;54382;53.524;49.326;2022-09-02T15:00:49;21.35;;;8.70;;
67548;SDS011;54382;53.524;49.326;2022-09-02T15:03:22;17.37;;;7.72;;
67548;SDS011;54382;53.524;49.326;2022-09-02T15:05:50;15.52;;;6.97;;
67548;SDS011;54382;53.524;49.326;2022-09-02T15:08:18;15.70;;;7.55;;
67548;SDS011;54382;53.524;49.326;2022-09-02T15:10:45;16.35;;;7.20;;
67548;SDS011;54382;53.524;49.326;2022-09-02T15:13:14;21.73;;;7.00;;
67548;SDS011;54382;53.524;49.326;2022-09-02T15:15:53;18.60;;;7.30;;
67548;SDS011;54382;53.524;49.326;2022-09-02T15:18:20;15.65;;;7.25;;
67548;SDS011;54382;53.524;49.326;2022-09-02T15:20:47;14.73;;;6.80;;
67548;SDS011;54382;53.524;49.326;2022-09-02T15:23:14;12.32;;;6.03;;
67548;SDS011;54382;53.524;49.326;2022-09-02T15:25:41;13.48;;;6.72;;
67548;SDS011;54382;53.524;49.326;2022-09-02T15:28:08;16.55;;;8.57;;
67548;SDS011;54382;53.524;49.326;2022-09-02T15:30:35;17.48;;;6.80;;
67548;SDS011;54382;53.524;49.326;2022-09-02T15:33:05;14.65;;;6.80;;
67548;SDS011;54382;53.524;49.326;2022-09-02T15:35:33;17.87;;;7.03;;
67548;SDS011;54382;53.524;49.326;2022-09-02T15:38:01;12.65;;;5.85;;
67548;SDS011;54382;53.524;49.326;2022-09-02T15:40:28;16.85;;;6.35;;
67548;SDS011;54382;53.524;49.326;2022-09-02T15:42:56;10.70;;;5.72;;
67548;SDS011;54382;53.524;49.326;2022-09-02T15:45:24;14.77;;;5.15;;
67548;SDS011;54382;53.524;49.326;2022-09-02T15:47:52;15.05;;;5.50;;
67548;SDS011;54382;53.524;49.326;2022-09-02T15:50:22;14.13;;;5.07;;
67548;SDS011;54382;53.524;49.326;2022-09-02T15:52:48;19.08;;;5.95;;
67548;SDS011;54382;53.524;49.326;2022-09-02T15:55:16;11.07;;;5.70;;
67548;SDS011;54382;53.524;49.326;2022-09-02T15:57:42;12.43;;;5.30;;
67548;SDS011;54382;53.524;49.326;2022-09-02T16:00:09;17.87;;;4.97;;
67548;SDS011;54382;53.524;49.326;2022-09-02T16:02:36;12.75;;;5.12;;
67548;SDS011;54382;53.524;49.326;2022-09-02T16:05:03;18.85;;;5.28;;
67548;SDS011;54382;53.524;49.326;2022-09-02T16:07:30;17.62;;;4.57;;
67548;SDS011;54382;53.524;49.326;2022-09-02T16:09:57;15.07;;;4.95;;
67548;SDS011;54382;53.524;49.326;2022-09-02T16:12:23;11.00;;;4.70;;
67548;SDS011;54382;53.524;49.326;2022-09-02T16:14:50;10.43;;;4.45;;
67548;SDS011;54382;53.524;49.326;2022-09-02T16:17:16;16.62;;;2.85;;
67548;SDS011;54382;53.524;49.326;2022-09-02T16:19:43;16.65;;;2.95;;
67548;SDS011;54382;53.524;49.326;2022-09-02T16:22:10;16.45;;;3.60;;
67548;SDS011;54382;53.524;49.326;2022-09-02T16:24:36;7.43;;;3.00;;
67548;SDS011;54382;53.524;49.326;2022-09-02T16:27:03;11.38;;;3.00;;
67548;SDS011;54382;53.524;49.326;2022-09-02T16:29:30;9.15;;;2.97;;
67548;SDS011;54382;53.524;49.326;2022-09-02T16:31:57;17.60;;;3.40;;
67548;SDS011;54382;53.524;49.326;2022-09-02T16:34:23;21.60;;;3.30;;
67548;SDS011;54382;53.524;49.326;2022-09-02T16:36:50;11.40;;;2.70;;
67548;SDS011;54382;53.524;49.326;2022-09-02T16:39:17;12.00;;;2.97;;
67548;SDS011;54382;53.524;49.326;2022-09-02T16:41:48;10.43;;;2.40;;
67548;SDS011;54382;53.524;49.326;2022-09-02T16:44:22;10.05;;;2.80;;
67548;SDS011;54382;53.524;49.326;2022-09-02T16:46:50;9.77;;;2.67;;
67548;SDS011;54382;53.524;49.326;2022-09-02T16:49:18;8.63;;;3.05;;
67548;SDS011;54382;53.524;49.326;2022-09-02T16:51:47;8.00;;;2.00;;
67548;SDS011;54382;53.524;49.326;2022-09-02T16:54:15;8.45;;;1.98;;
67548;SDS011;54382;53.524;49.326;2022-09-02T16:56:44;8.43;;;2.03;;
67548;SDS011;54382;53.524;49.326;2022-09-02T16:59:11;12.63;;;1.90;;
67548;SDS011;54382;53.524;49.326;2022-09-02T17:01:38;9.38;;;1.85;;